sensor_id;sensor_type;location;lat;lon;timestamp;temperature;humidity
54846;DHT22;53889;50.084;8.646;2023-02-04T00:01:45;8.60;99.90
54846;DHT22;53889;50.084;8.646;2023-02-04T00:04:14;8.70;99.90
54846;DHT22;53889;50.084;8.646;2023-02-04T00:06:41;8.30;99.90
54846;DHT22;53889;50.084;8.646;2023-02-04T00:09:07;8.60;99.90
54846;DHT22;53889;50.084;8.646;2023-02-04T00:11:34;8.70;99.90
54846;DHT22;53889;50.084;8.646;2023-02-04T00:14:01;8.60;99.90
54846;DHT22;53889;50.084;8.646;2023-02-04T00:16:28;8.50;99.90
54846;DHT22;53889;50.084;8.646;2023-02-04T00:18:55;8.50;99.90
54846;DHT22;53889;50.084;8.646;2023-02-04T00:21:23;8.40;99.90
54846;DHT22;53889;50.084;8.646;2023-02-04T00:23:49;8.50;99.90
54846;DHT22;53889;50.084;8.646;2023-02-04T00:26:16;8.50;99.90
54846;DHT22;53889;50.084;8.646;2023-02-04T00:28:43;8.40;99.90
54846;DHT22;53889;50.084;8.646;2023-02-04T00:31:09;8.40;99.90
54846;DHT22;53889;50.084;8.646;2023-02-04T00:33:36;8.40;99.90
54846;DHT22;53889;50.084;8.646;2023-02-04T00:36:03;8.40;99.90
54846;DHT22;53889;50.084;8.646;2023-02-04T00:38:31;8.40;99.90
54846;DHT22;53889;50.084;8.646;2023-02-04T00:40:58;8.50;99.90
54846;DHT22;53889;50.084;8.646;2023-02-04T00:43:25;8.50;99.90
54846;DHT22;53889;50.084;8.646;2023-02-04T00:45:51;8.50;99.90
54846;DHT22;53889;50.084;8.646;2023-02-04T00:48:18;8.50;99.90
54846;DHT22;53889;50.084;8.646;2023-02-04T00:50:45;8.50;99.90
54846;DHT22;53889;50.084;8.646;2023-02-04T00:53:11;8.50;99.90
54846;DHT22;53889;50.084;8.646;2023-02-04T00:55:39;8.50;99.90
54846;DHT22;53889;50.084;8.646;2023-02-04T00:58:06;8.50;99.90
54846;DHT22;53889;50.084;8.646;2023-02-04T01:00:33;8.50;99.90
54846;DHT22;53889;50.084;8.646;2023-02-04T01:02:59;8.50;99.90
54846;DHT22;53889;50.084;8.646;2023-02-04T01:05:26;8.50;99.90
54846;DHT22;53889;50.084;8.646;2023-02-04T01:07:53;8.50;99.90
54846;DHT22;53889;50.084;8.646;2023-02-04T01:10:20;8.50;99.90
54846;DHT22;53889;50.084;8.646;2023-02-04T01:12:48;8.50;99.90
54846;DHT22;53889;50.084;8.646;2023-02-04T01:15:15;8.40;99.90
54846;DHT22;53889;50.084;8.646;2023-02-04T01:17:41;8.40;99.90
54846;DHT22;53889;50.084;8.646;2023-02-04T01:20:09;8.40;99.90
54846;DHT22;53889;50.084;8.646;2023-02-04T01:22:36;8.00;99.90
54846;DHT22;53889;50.084;8.646;2023-02-04T01:25:03;8.40;99.90
54846;DHT22;53889;50.084;8.646;2023-02-04T01:27:39;8.40;99.90
54846;DHT22;53889;50.084;8.646;2023-02-04T01:30:08;8.50;99.90
54846;DHT22;53889;50.084;8.646;2023-02-04T01:32:35;8.40;99.90
54846;DHT22;53889;50.084;8.646;2023-02-04T01:35:02;8.30;99.90
54846;DHT22;53889;50.084;8.646;2023-02-04T01:37:29;8.30;99.90
54846;DHT22;53889;50.084;8.646;2023-02-04T01:39:56;8.30;99.90
54846;DHT22;53889;50.084;8.646;2023-02-04T01:42:22;8.40;99.90
54846;DHT22;53889;50.084;8.646;2023-02-04T01:44:50;8.40;99.90
54846;DHT22;53889;50.084;8.646;2023-02-04T01:47:18;8.30;99.90
54846;DHT22;53889;50.084;8.646;2023-02-04T01:49:46;8.40;99.90
54846;DHT22;53889;50.084;8.646;2023-02-04T01:52:14;8.40;99.90
54846;DHT22;53889;50.084;8.646;2023-02-04T01:54:42;8.40;99.90
54846;DHT22;53889;50.084;8.646;2023-02-04T01:57:12;8.40;99.90
54846;DHT22;53889;50.084;8.646;2023-02-04T01:59:42;8.40;99.90
54846;DHT22;53889;50.084;8.646;2023-02-04T02:02:40;8.40;99.90
54846;DHT22;53889;50.084;8.646;2023-02-04T02:05:07;8.40;99.90
54846;DHT22;53889;50.084;8.646;2023-02-04T02:07:35;8.40;99.90
54846;DHT22;53889;50.084;8.646;2023-02-04T02:10:03;8.40;99.90
54846;DHT22;53889;50.084;8.646;2023-02-04T02:12:30;8.20;99.90
54846;DHT22;53889;50.084;8.646;2023-02-04T02:14:58;8.30;99.90
54846;DHT22;53889;50.084;8.646;2023-02-04T02:17:25;8.20;99.90
54846;DHT22;53889;50.084;8.646;2023-02-04T02:19:53;8.20;99.90
54846;DHT22;53889;50.084;8.646;2023-02-04T02:22:24;8.20;99.90
54846;DHT22;53889;50.084;8.646;2023-02-04T02:24:54;8.20;99.90
54846;DHT22;53889;50.084;8.646;2023-02-04T02:27:21;8.30;99.90
54846;DHT22;53889;50.084;8.646;2023-02-04T02:29:48;8.20;99.90
54846;DHT22;53889;50.084;8.646;2023-02-04T02:32:16;8.20;99.90
54846;DHT22;53889;50.084;8.646;2023-02-04T02:34:44;8.20;99.90
54846;DHT22;53889;50.084;8.646;2023-02-04T02:37:12;8.20;99.90
54846;DHT22;53889;50.084;8.646;2023-02-04T02:39:39;8.20;99.90
54846;DHT22;53889;50.084;8.646;2023-02-04T02:42:09;8.30;99.90
54846;DHT22;53889;50.084;8.646;2023-02-04T02:44:36;8.30;99.90
54846;DHT22;53889;50.084;8.646;2023-02-04T02:47:03;8.40;99.90
54846;DHT22;53889;50.084;8.646;2023-02-04T02:49:31;8.40;99.90
54846;DHT22;53889;50.084;8.646;2023-02-04T02:51:59;8.50;99.90
54846;DHT22;53889;50.084;8.646;2023-02-04T02:54:28;8.50;99.90
54846;DHT22;53889;50.084;8.646;2023-02-04T02:56:58;8.50;99.90
54846;DHT22;53889;50.084;8.646;2023-02-04T02:59:26;8.50;99.90
54846;DHT22;53889;50.084;8.646;2023-02-04T03:01:56;8.50;99.90
54846;DHT22;53889;50.084;8.646;2023-02-04T03:04:25;8.50;99.90
54846;DHT22;53889;50.084;8.646;2023-02-04T03:06:53;8.50;99.90
54846;DHT22;53889;50.084;8.646;2023-02-04T03:09:21;8.40;99.90
54846;DHT22;53889;50.084;8.646;2023-02-04T03:11:50;8.40;99.90
54846;DHT22;53889;50.084;8.646;2023-02-04T03:14:17;8.30;99.90
54846;DHT22;53889;50.084;8.646;2023-02-04T03:16:46;8.40;99.90
54846;DHT22;53889;50.084;8.646;2023-02-04T03:19:13;8.30;99.90
54846;DHT22;53889;50.084;8.646;2023-02-04T03:21:40;8.30;99.90
54846;DHT22;53889;50.084;8.646;2023-02-04T03:24:08;8.20;99.90
54846;DHT22;53889;50.084;8.646;2023-02-04T03:26:36;8.10;99.90
54846;DHT22;53889;50.084;8.646;2023-02-04T03:29:05;8.10;99.90
54846;DHT22;53889;50.084;8.646;2023-02-04T03:31:32;8.10;99.90
54846;DHT22;53889;50.084;8.646;2023-02-04T03:34:00;8.10;99.90
54846;DHT22;53889;50.084;8.646;2023-02-04T03:36:27;8.00;99.90
54846;DHT22;53889;50.084;8.646;2023-02-04T03:38:53;7.90;99.90
54846;DHT22;53889;50.084;8.646;2023-02-04T03:41:20;7.90;99.90
54846;DHT22;53889;50.084;8.646;2023-02-04T03:43:47;7.90;99.90
54846;DHT22;53889;50.084;8.646;2023-02-04T03:46:14;7.90;99.90
54846;DHT22;53889;50.084;8.646;2023-02-04T03:48:40;7.90;99.90
54846;DHT22;53889;50.084;8.646;2023-02-04T03:51:08;7.90;99.90
54846;DHT22;53889;50.084;8.646;2023-02-04T03:53:35;8.00;99.90
54846;DHT22;53889;50.084;8.646;2023-02-04T03:56:02;8.00;99.90
54846;DHT22;53889;50.084;8.646;2023-02-04T03:58:29;8.00;99.90
54846;DHT22;53889;50.084;8.646;2023-02-04T04:00:56;7.90;99.90
54846;DHT22;53889;50.084;8.646;2023-02-04T04:03:22;7.90;99.90
54846;DHT22;53889;50.084;8.646;2023-02-04T04:05:49;8.00;99.90
54846;DHT22;53889;50.084;8.646;2023-02-04T04:08:17;8.10;99.90
54846;DHT22;53889;50.084;8.646;2023-02-04T04:10:44;8.00;99.90
54846;DHT22;53889;50.084;8.646;2023-02-04T04:13:10;8.10;99.90
54846;DHT22;53889;50.084;8.646;2023-02-04T04:15:37;8.00;99.90
54846;DHT22;53889;50.084;8.646;2023-02-04T04:18:04;8.00;99.90
54846;DHT22;53889;50.084;8.646;2023-02-04T04:20:31;8.00;99.90
54846;DHT22;53889;50.084;8.646;2023-02-04T04:22:57;8.00;99.90
54846;DHT22;53889;50.084;8.646;2023-02-04T04:25:25;8.00;99.90
54846;DHT22;53889;50.084;8.646;2023-02-04T04:27:52;8.00;99.90
54846;DHT22;53889;50.084;8.646;2023-02-04T04:30:19;8.00;99.90
54846;DHT22;53889;50.084;8.646;2023-02-04T04:32:45;7.90;99.90
54846;DHT22;53889;50.084;8.646;2023-02-04T04:35:12;7.90;99.90
54846;DHT22;53889;50.084;8.646;2023-02-04T04:37:39;7.90;99.90
54846;DHT22;53889;50.084;8.646;2023-02-04T04:40:06;8.00;99.90
54846;DHT22;53889;50.084;8.646;2023-02-04T04:42:34;8.00;99.90
54846;DHT22;53889;50.084;8.646;2023-02-04T04:45:01;7.90;99.90
54846;DHT22;53889;50.084;8.646;2023-02-04T04:47:28;7.80;99.90
54846;DHT22;53889;50.084;8.646;2023-02-04T04:49:54;7.80;99.90
54846;DHT22;53889;50.084;8.646;2023-02-04T04:52:21;7.80;99.90
54846;DHT22;53889;50.084;8.646;2023-02-04T04:54:48;7.90;99.90
54846;DHT22;53889;50.084;8.646;2023-02-04T04:57:14;8.00;99.90
54846;DHT22;53889;50.084;8.646;2023-02-04T04:59:42;8.00;99.90
54846;DHT22;53889;50.084;8.646;2023-02-04T05:02:09;7.90;99.90
54846;DHT22;53889;50.084;8.646;2023-02-04T05:04:36;7.90;99.90
54846;DHT22;53889;50.084;8.646;2023-02-04T05:07:02;7.80;99.90
54846;DHT22;53889;50.084;8.646;2023-02-04T05:09:29;7.70;99.90
54846;DHT22;53889;50.084;8.646;2023-02-04T05:11:56;7.70;99.90
54846;DHT22;53889;50.084;8.646;2023-02-04T05:14:22;7.60;99.90
54846;DHT22;53889;50.084;8.646;2023-02-04T05:16:50;7.60;99.90
54846;DHT22;53889;50.084;8.646;2023-02-04T05:19:17;7.60;99.90
54846;DHT22;53889;50.084;8.646;2023-02-04T05:21:44;7.60;99.90
54846;DHT22;53889;50.084;8.646;2023-02-04T05:24:11;7.60;99.90
54846;DHT22;53889;50.084;8.646;2023-02-04T05:26:37;7.70;99.90
54846;DHT22;53889;50.084;8.646;2023-02-04T05:29:04;7.70;99.90
54846;DHT22;53889;50.084;8.646;2023-02-04T05:31:31;7.70;99.90
54846;DHT22;53889;50.084;8.646;2023-02-04T05:33:59;7.90;99.90
54846;DHT22;53889;50.084;8.646;2023-02-04T05:36:26;7.70;99.90
54846;DHT22;53889;50.084;8.646;2023-02-04T05:38:53;7.70;99.90
54846;DHT22;53889;50.084;8.646;2023-02-04T05:41:19;7.80;99.90
54846;DHT22;53889;50.084;8.646;2023-02-04T05:43:49;7.70;99.90
54846;DHT22;53889;50.084;8.646;2023-02-04T05:46:16;7.70;99.90
54846;DHT22;53889;50.084;8.646;2023-02-04T05:48:43;7.80;99.90
54846;DHT22;53889;50.084;8.646;2023-02-04T05:51:11;7.70;99.90
54846;DHT22;53889;50.084;8.646;2023-02-04T05:53:37;7.70;99.90
54846;DHT22;53889;50.084;8.646;2023-02-04T05:56:04;7.70;99.90
54846;DHT22;53889;50.084;8.646;2023-02-04T05:58:31;7.70;99.90
54846;DHT22;53889;50.084;8.646;2023-02-04T06:00:58;7.80;99.90
54846;DHT22;53889;50.084;8.646;2023-02-04T06:03:26;7.60;99.90
54846;DHT22;53889;50.084;8.646;2023-02-04T06:05:52;7.70;99.90
54846;DHT22;53889;50.084;8.646;2023-02-04T06:08:20;7.70;99.90
54846;DHT22;53889;50.084;8.646;2023-02-04T06:10:47;7.80;99.90
54846;DHT22;53889;50.084;8.646;2023-02-04T06:13:14;7.80;99.90
54846;DHT22;53889;50.084;8.646;2023-02-04T06:15:41;7.70;99.90
54846;DHT22;53889;50.084;8.646;2023-02-04T06:18:07;7.80;99.90
54846;DHT22;53889;50.084;8.646;2023-02-04T06:20:34;7.70;99.90
54846;DHT22;53889;50.084;8.646;2023-02-04T06:23:01;7.80;99.90
54846;DHT22;53889;50.084;8.646;2023-02-04T06:25:29;7.60;99.90
54846;DHT22;53889;50.084;8.646;2023-02-04T06:27:56;7.50;99.90
54846;DHT22;53889;50.084;8.646;2023-02-04T06:30:22;7.50;99.90
54846;DHT22;53889;50.084;8.646;2023-02-04T06:32:49;7.60;99.90
54846;DHT22;53889;50.084;8.646;2023-02-04T06:35:16;7.70;99.90
54846;DHT22;53889;50.084;8.646;2023-02-04T06:37:43;7.70;99.90
54846;DHT22;53889;50.084;8.646;2023-02-04T06:40:11;7.80;99.90
54846;DHT22;53889;50.084;8.646;2023-02-04T06:42:39;7.90;99.90
54846;DHT22;53889;50.084;8.646;2023-02-04T06:45:06;7.90;99.90
54846;DHT22;53889;50.084;8.646;2023-02-04T06:47:33;7.90;99.90
54846;DHT22;53889;50.084;8.646;2023-02-04T06:50:00;7.80;99.90
54846;DHT22;53889;50.084;8.646;2023-02-04T06:52:26;7.80;99.90
54846;DHT22;53889;50.084;8.646;2023-02-04T06:54:53;7.80;99.90
54846;DHT22;53889;50.084;8.646;2023-02-04T06:57:20;7.70;99.90
54846;DHT22;53889;50.084;8.646;2023-02-04T06:59:48;7.60;99.90
54846;DHT22;53889;50.084;8.646;2023-02-04T07:02:15;7.70;99.90
54846;DHT22;53889;50.084;8.646;2023-02-04T07:04:41;7.60;99.90
54846;DHT22;53889;50.084;8.646;2023-02-04T07:07:09;7.70;99.90
54846;DHT22;53889;50.084;8.646;2023-02-04T07:09:35;7.70;99.90
54846;DHT22;53889;50.084;8.646;2023-02-04T07:12:05;7.70;99.90
54846;DHT22;53889;50.084;8.646;2023-02-04T07:14:31;7.60;99.90
54846;DHT22;53889;50.084;8.646;2023-02-04T07:16:59;7.60;99.90
54846;DHT22;53889;50.084;8.646;2023-02-04T07:19:26;7.60;99.90
54846;DHT22;53889;50.084;8.646;2023-02-04T07:21:53;7.50;99.90
54846;DHT22;53889;50.084;8.646;2023-02-04T07:24:21;9.80;99.90
54846;DHT22;53889;50.084;8.646;2023-02-04T07:26:48;7.50;99.90
54846;DHT22;53889;50.084;8.646;2023-02-04T07:29:15;7.50;99.90
54846;DHT22;53889;50.084;8.646;2023-02-04T07:31:41;7.50;99.90
54846;DHT22;53889;50.084;8.646;2023-02-04T07:34:11;7.50;99.90
54846;DHT22;53889;50.084;8.646;2023-02-04T07:36:37;7.50;99.90
54846;DHT22;53889;50.084;8.646;2023-02-04T07:39:04;7.60;99.90
54846;DHT22;53889;50.084;8.646;2023-02-04T07:41:31;7.70;99.90
54846;DHT22;53889;50.084;8.646;2023-02-04T07:43:59;7.70;99.90
54846;DHT22;53889;50.084;8.646;2023-02-04T07:46:26;7.70;99.90
54846;DHT22;53889;50.084;8.646;2023-02-04T07:48:52;7.70;99.90
54846;DHT22;53889;50.084;8.646;2023-02-04T07:51:21;7.80;99.90
54846;DHT22;53889;50.084;8.646;2023-02-04T07:53:47;9.30;99.90
54846;DHT22;53889;50.084;8.646;2023-02-04T07:56:14;7.90;99.90
54846;DHT22;53889;50.084;8.646;2023-02-04T07:58:41;8.00;99.90
54846;DHT22;53889;50.084;8.646;2023-02-04T08:01:07;8.00;99.90
54846;DHT22;53889;50.084;8.646;2023-02-04T08:03:34;8.10;99.90
54846;DHT22;53889;50.084;8.646;2023-02-04T08:06:01;8.10;99.90
54846;DHT22;53889;50.084;8.646;2023-02-04T08:08:29;8.00;99.90
54846;DHT22;53889;50.084;8.646;2023-02-04T08:10:56;8.10;99.90
54846;DHT22;53889;50.084;8.646;2023-02-04T08:13:22;8.20;99.90
54846;DHT22;53889;50.084;8.646;2023-02-04T08:15:50;8.30;99.90
54846;DHT22;53889;50.084;8.646;2023-02-04T08:18:16;8.40;99.90
54846;DHT22;53889;50.084;8.646;2023-02-04T08:20:43;8.50;99.90
54846;DHT22;53889;50.084;8.646;2023-02-04T08:23:10;8.70;99.90
54846;DHT22;53889;50.084;8.646;2023-02-04T08:25:38;8.90;99.90
54846;DHT22;53889;50.084;8.646;2023-02-04T08:28:05;9.10;99.90
54846;DHT22;53889;50.084;8.646;2023-02-04T08:30:31;9.20;99.90
54846;DHT22;53889;50.084;8.646;2023-02-04T08:32:58;9.20;99.90
54846;DHT22;53889;50.084;8.646;2023-02-04T08:35:25;9.40;99.90
54846;DHT22;53889;50.084;8.646;2023-02-04T08:37:52;9.30;99.90
54846;DHT22;53889;50.084;8.646;2023-02-04T08:40:19;9.30;99.90
54846;DHT22;53889;50.084;8.646;2023-02-04T08:42:47;9.30;99.90
54846;DHT22;53889;50.084;8.646;2023-02-04T08:45:13;9.30;99.90
54846;DHT22;53889;50.084;8.646;2023-02-04T08:47:40;9.20;99.90
54846;DHT22;53889;50.084;8.646;2023-02-04T08:50:08;9.20;99.90
54846;DHT22;53889;50.084;8.646;2023-02-04T08:52:35;9.10;99.90
54846;DHT22;53889;50.084;8.646;2023-02-04T08:55:02;9.20;99.90
54846;DHT22;53889;50.084;8.646;2023-02-04T08:57:29;9.20;99.90
54846;DHT22;53889;50.084;8.646;2023-02-04T08:59:57;9.20;99.90
54846;DHT22;53889;50.084;8.646;2023-02-04T09:02:24;9.20;99.90
54846;DHT22;53889;50.084;8.646;2023-02-04T09:04:50;9.80;99.90
54846;DHT22;53889;50.084;8.646;2023-02-04T09:07:17;9.30;99.90
54846;DHT22;53889;50.084;8.646;2023-02-04T09:09:44;9.50;99.90
54846;DHT22;53889;50.084;8.646;2023-02-04T09:12:10;9.70;99.90
54846;DHT22;53889;50.084;8.646;2023-02-04T09:14:37;10.00;99.90
54846;DHT22;53889;50.084;8.646;2023-02-04T09:17:05;10.10;99.90
54846;DHT22;53889;50.084;8.646;2023-02-04T09:19:32;10.20;99.90
54846;DHT22;53889;50.084;8.646;2023-02-04T09:21:59;10.40;99.90
54846;DHT22;53889;50.084;8.646;2023-02-04T09:24:25;10.40;99.90
54846;DHT22;53889;50.084;8.646;2023-02-04T09:26:52;10.50;99.90
54846;DHT22;53889;50.084;8.646;2023-02-04T09:29:19;10.60;99.90
54846;DHT22;53889;50.084;8.646;2023-02-04T09:31:46;10.50;99.90
54846;DHT22;53889;50.084;8.646;2023-02-04T09:34:14;10.50;99.90
54846;DHT22;53889;50.084;8.646;2023-02-04T09:36:41;11.40;99.90
54846;DHT22;53889;50.084;8.646;2023-02-04T09:39:08;12.00;99.90
54846;DHT22;53889;50.084;8.646;2023-02-04T09:41:37;12.60;99.50
54846;DHT22;53889;50.084;8.646;2023-02-04T09:44:09;13.00;98.20
54846;DHT22;53889;50.084;8.646;2023-02-04T09:46:37;12.80;97.80
54846;DHT22;53889;50.084;8.646;2023-02-04T09:49:04;12.50;98.60
54846;DHT22;53889;50.084;8.646;2023-02-04T09:51:33;12.60;98.50
54846;DHT22;53889;50.084;8.646;2023-02-04T09:54:06;12.80;98.30
54846;DHT22;53889;50.084;8.646;2023-02-04T09:56:34;12.80;98.10
54846;DHT22;53889;50.084;8.646;2023-02-04T09:59:02;12.60;98.10
54846;DHT22;53889;50.084;8.646;2023-02-04T10:01:29;12.10;98.20
54846;DHT22;53889;50.084;8.646;2023-02-04T10:03:59;11.90;98.60
54846;DHT22;53889;50.084;8.646;2023-02-04T10:06:27;11.80;99.00
54846;DHT22;53889;50.084;8.646;2023-02-04T10:08:56;11.60;99.40
54846;DHT22;53889;50.084;8.646;2023-02-04T10:11:24;11.20;99.80
54846;DHT22;53889;50.084;8.646;2023-02-04T10:13:53;11.00;99.90
54846;DHT22;53889;50.084;8.646;2023-02-04T10:16:22;10.60;99.90
54846;DHT22;53889;50.084;8.646;2023-02-04T10:18:54;10.40;99.90
54846;DHT22;53889;50.084;8.646;2023-02-04T10:21:24;10.30;99.90
54846;DHT22;53889;50.084;8.646;2023-02-04T10:23:56;10.30;99.90
54846;DHT22;53889;50.084;8.646;2023-02-04T10:26:25;10.20;99.90
54846;DHT22;53889;50.084;8.646;2023-02-04T10:28:58;10.10;99.90
54846;DHT22;53889;50.084;8.646;2023-02-04T10:31:27;10.00;99.90
54846;DHT22;53889;50.084;8.646;2023-02-04T10:34:03;9.80;99.90
54846;DHT22;53889;50.084;8.646;2023-02-04T10:36:30;9.80;99.90
54846;DHT22;53889;50.084;8.646;2023-02-04T10:39:03;9.70;99.90
54846;DHT22;53889;50.084;8.646;2023-02-04T10:41:30;9.70;99.90
54846;DHT22;53889;50.084;8.646;2023-02-04T10:44:05;9.80;99.90
54846;DHT22;53889;50.084;8.646;2023-02-04T10:46:33;9.70;99.90
54846;DHT22;53889;50.084;8.646;2023-02-04T10:49:03;9.80;99.90
54846;DHT22;53889;50.084;8.646;2023-02-04T10:51:30;10.00;99.90
54846;DHT22;53889;50.084;8.646;2023-02-04T10:53:57;10.00;99.90
54846;DHT22;53889;50.084;8.646;2023-02-04T10:56:43;10.20;99.90
54846;DHT22;53889;50.084;8.646;2023-02-04T10:59:21;10.60;99.90
54846;DHT22;53889;50.084;8.646;2023-02-04T11:01:51;11.30;99.90
54846;DHT22;53889;50.084;8.646;2023-02-04T11:04:18;11.30;99.90
54846;DHT22;53889;50.084;8.646;2023-02-04T11:06:45;11.20;99.90
54846;DHT22;53889;50.084;8.646;2023-02-04T11:09:13;11.30;99.90
54846;DHT22;53889;50.084;8.646;2023-02-04T11:11:46;11.20;99.90
54846;DHT22;53889;50.084;8.646;2023-02-04T11:14:27;11.20;99.90
54846;DHT22;53889;50.084;8.646;2023-02-04T11:16:55;11.30;99.90
54846;DHT22;53889;50.084;8.646;2023-02-04T11:19:33;10.90;99.90
54846;DHT22;53889;50.084;8.646;2023-02-04T11:22:07;11.00;99.90
54846;DHT22;53889;50.084;8.646;2023-02-04T11:24:34;10.90;99.90
54846;DHT22;53889;50.084;8.646;2023-02-04T11:27:16;11.00;99.90
54846;DHT22;53889;50.084;8.646;2023-02-04T11:29:44;11.00;99.90
54846;DHT22;53889;50.084;8.646;2023-02-04T11:32:27;11.20;99.80
54846;DHT22;53889;50.084;8.646;2023-02-04T11:37:46;11.30;99.90
54846;DHT22;53889;50.084;8.646;2023-02-04T11:40:24;13.00;99.90
54846;DHT22;53889;50.084;8.646;2023-02-04T11:42:58;12.10;98.50
54846;DHT22;53889;50.084;8.646;2023-02-04T11:45:28;12.60;97.60
54846;DHT22;53889;50.084;8.646;2023-02-04T11:47:58;13.60;97.00
54846;DHT22;53889;50.084;8.646;2023-02-04T11:50:27;13.20;95.90
54846;DHT22;53889;50.084;8.646;2023-02-04T11:52:55;13.20;96.00
54846;DHT22;53889;50.084;8.646;2023-02-04T11:55:23;13.10;96.30
54846;DHT22;53889;50.084;8.646;2023-02-04T11:57:52;13.60;95.70
54846;DHT22;53889;50.084;8.646;2023-02-04T12:00:22;13.60;95.30
54846;DHT22;53889;50.084;8.646;2023-02-04T12:02:53;13.10;95.30
54846;DHT22;53889;50.084;8.646;2023-02-04T12:05:21;12.90;95.80
54846;DHT22;53889;50.084;8.646;2023-02-04T12:07:48;12.60;95.90
54846;DHT22;53889;50.084;8.646;2023-02-04T12:10:23;12.30;96.80
54846;DHT22;53889;50.084;8.646;2023-02-04T12:12:52;12.30;96.50
54846;DHT22;53889;50.084;8.646;2023-02-04T12:15:29;12.20;96.50
54846;DHT22;53889;50.084;8.646;2023-02-04T12:18:00;12.00;96.50
54846;DHT22;53889;50.084;8.646;2023-02-04T12:20:28;12.30;96.40
54846;DHT22;53889;50.084;8.646;2023-02-04T12:22:55;12.80;95.90
54846;DHT22;53889;50.084;8.646;2023-02-04T12:25:22;13.30;95.50
54846;DHT22;53889;50.084;8.646;2023-02-04T12:27:51;13.90;94.90
54846;DHT22;53889;50.084;8.646;2023-02-04T12:30:19;14.10;94.00
54846;DHT22;53889;50.084;8.646;2023-02-04T12:32:48;14.10;93.80
54846;DHT22;53889;50.084;8.646;2023-02-04T12:35:15;13.80;94.20
54846;DHT22;53889;50.084;8.646;2023-02-04T12:37:43;13.60;94.50
54846;DHT22;53889;50.084;8.646;2023-02-04T12:40:13;13.10;94.60
54846;DHT22;53889;50.084;8.646;2023-02-04T12:42:41;13.00;95.10
54846;DHT22;53889;50.084;8.646;2023-02-04T12:45:09;12.90;95.40
54846;DHT22;53889;50.084;8.646;2023-02-04T12:47:36;13.10;95.40
54846;DHT22;53889;50.084;8.646;2023-02-04T12:50:05;13.40;95.00
54846;DHT22;53889;50.084;8.646;2023-02-04T12:52:33;13.80;94.40
54846;DHT22;53889;50.084;8.646;2023-02-04T12:55:01;13.90;93.40
54846;DHT22;53889;50.084;8.646;2023-02-04T12:57:29;14.40;93.00
54846;DHT22;53889;50.084;8.646;2023-02-04T12:59:56;15.20;92.20
54846;DHT22;53889;50.084;8.646;2023-02-04T13:02:24;14.30;91.70
54846;DHT22;53889;50.084;8.646;2023-02-04T13:04:51;14.00;92.30
54846;DHT22;53889;50.084;8.646;2023-02-04T13:07:19;13.70;92.60
54846;DHT22;53889;50.084;8.646;2023-02-04T13:09:46;14.70;93.10
54846;DHT22;53889;50.084;8.646;2023-02-04T13:12:13;13.20;93.10
54846;DHT22;53889;50.084;8.646;2023-02-04T13:14:41;12.80;93.40
54846;DHT22;53889;50.084;8.646;2023-02-04T13:17:08;12.60;93.80
54846;DHT22;53889;50.084;8.646;2023-02-04T13:19:35;12.20;94.50
54846;DHT22;53889;50.084;8.646;2023-02-04T13:22:02;11.70;95.30
54846;DHT22;53889;50.084;8.646;2023-02-04T13:24:30;11.60;95.50
54846;DHT22;53889;50.084;8.646;2023-02-04T13:26:57;11.70;95.60
54846;DHT22;53889;50.084;8.646;2023-02-04T13:29:24;11.60;95.20
54846;DHT22;53889;50.084;8.646;2023-02-04T13:31:51;11.60;95.40
54846;DHT22;53889;50.084;8.646;2023-02-04T13:34:18;11.90;95.50
54846;DHT22;53889;50.084;8.646;2023-02-04T13:36:45;12.00;95.00
54846;DHT22;53889;50.084;8.646;2023-02-04T13:39:13;11.90;95.20
54846;DHT22;53889;50.084;8.646;2023-02-04T13:41:41;11.70;95.00
54846;DHT22;53889;50.084;8.646;2023-02-04T13:44:08;11.40;95.50
54846;DHT22;53889;50.084;8.646;2023-02-04T13:46:35;11.30;95.80
54846;DHT22;53889;50.084;8.646;2023-02-04T13:49:01;11.40;96.10
54846;DHT22;53889;50.084;8.646;2023-02-04T13:51:28;11.50;96.10
54846;DHT22;53889;50.084;8.646;2023-02-04T13:53:55;11.70;95.90
54846;DHT22;53889;50.084;8.646;2023-02-04T13:56:22;11.70;95.70
54846;DHT22;53889;50.084;8.646;2023-02-04T13:58:50;11.50;95.90
54846;DHT22;53889;50.084;8.646;2023-02-04T14:01:18;11.40;95.50
54846;DHT22;53889;50.084;8.646;2023-02-04T14:03:45;11.80;95.70
54846;DHT22;53889;50.084;8.646;2023-02-04T14:06:11;12.10;94.50
54846;DHT22;53889;50.084;8.646;2023-02-04T14:08:39;12.30;94.50
54846;DHT22;53889;50.084;8.646;2023-02-04T14:11:06;12.30;94.30
54846;DHT22;53889;50.084;8.646;2023-02-04T14:13:33;12.10;94.40
54846;DHT22;53889;50.084;8.646;2023-02-04T14:16:01;11.90;94.10
54846;DHT22;53889;50.084;8.646;2023-02-04T14:18:28;11.80;94.50
54846;DHT22;53889;50.084;8.646;2023-02-04T14:20:55;11.60;94.70
54846;DHT22;53889;50.084;8.646;2023-02-04T14:23:21;11.50;94.80
54846;DHT22;53889;50.084;8.646;2023-02-04T14:25:49;11.30;95.00
54846;DHT22;53889;50.084;8.646;2023-02-04T14:28:15;11.00;95.40
54846;DHT22;53889;50.084;8.646;2023-02-04T14:30:42;10.80;95.90
54846;DHT22;53889;50.084;8.646;2023-02-04T14:33:10;10.90;95.80
54846;DHT22;53889;50.084;8.646;2023-02-04T14:35:39;11.00;95.80
54846;DHT22;53889;50.084;8.646;2023-02-04T14:38:06;10.80;95.90
54846;DHT22;53889;50.084;8.646;2023-02-04T14:40:32;10.80;96.10
54846;DHT22;53889;50.084;8.646;2023-02-04T14:42:59;10.80;96.10
54846;DHT22;53889;50.084;8.646;2023-02-04T14:45:26;10.80;96.10
54846;DHT22;53889;50.084;8.646;2023-02-04T14:47:52;10.90;95.80
54846;DHT22;53889;50.084;8.646;2023-02-04T14:50:22;10.80;95.60
54846;DHT22;53889;50.084;8.646;2023-02-04T14:52:51;11.20;95.80
54846;DHT22;53889;50.084;8.646;2023-02-04T14:55:18;10.80;95.80
54846;DHT22;53889;50.084;8.646;2023-02-04T14:57:45;10.70;95.80
54846;DHT22;53889;50.084;8.646;2023-02-04T15:00:13;10.60;95.90
54846;DHT22;53889;50.084;8.646;2023-02-04T15:02:40;10.60;95.70
54846;DHT22;53889;50.084;8.646;2023-02-04T15:05:08;10.60;96.00
54846;DHT22;53889;50.084;8.646;2023-02-04T15:07:36;10.40;96.10
54846;DHT22;53889;50.084;8.646;2023-02-04T15:10:04;10.50;96.00
54846;DHT22;53889;50.084;8.646;2023-02-04T15:12:31;10.50;96.00
54846;DHT22;53889;50.084;8.646;2023-02-04T15:14:57;10.60;96.00
54846;DHT22;53889;50.084;8.646;2023-02-04T15:17:24;10.60;95.90
54846;DHT22;53889;50.084;8.646;2023-02-04T15:19:51;10.60;95.90
54846;DHT22;53889;50.084;8.646;2023-02-04T15:22:18;10.50;96.00
54846;DHT22;53889;50.084;8.646;2023-02-04T15:24:46;10.50;96.10
54846;DHT22;53889;50.084;8.646;2023-02-04T15:27:13;10.20;96.00
54846;DHT22;53889;50.084;8.646;2023-02-04T15:29:39;10.20;96.50
54846;DHT22;53889;50.084;8.646;2023-02-04T15:32:06;10.00;96.60
54846;DHT22;53889;50.084;8.646;2023-02-04T15:34:34;10.10;96.80
54846;DHT22;53889;50.084;8.646;2023-02-04T15:37:01;9.90;96.60
54846;DHT22;53889;50.084;8.646;2023-02-04T15:39:28;9.90;96.70
54846;DHT22;53889;50.084;8.646;2023-02-04T15:41:56;9.90;96.80
54846;DHT22;53889;50.084;8.646;2023-02-04T15:44:23;9.80;96.90
54846;DHT22;53889;50.084;8.646;2023-02-04T15:46:51;9.70;96.90